New Palestine, Indiana
Current Conditions -  °F | °C
As of 10:15 AM on Monday 24 Nov 2014 (Local Time) from KMQJ Reporting Station
Overcast Overcast  
Wind Chill: 35°   Ceiling: 1200
Heat Index: 45°   Visibility: 10mi
Dew Point: 43°   Wind: 26mph
Humidity: 93%   Direction: 250°WSW
Pressure: 29.37"   Gusts: 39mph
Location:  39.72°N, 85.89°W
Report Text: KMQJ 241515Z AUTO 25023G34KT 10SM OVC012 07/06 A2937 RMK AO1
Loading
Personal Weather Stations






























Interactive Weather Map New forecast layout! Learn more

10-Day Weather Forecast

Advertisements
Track Severe Weather on mobile